Time;durP1;ratioP1;P1;durP2;ratioP2;P2;SDS_P1;SDS_P2;PMS_P1;PMS_P2;Temp;Humidity;BMP_temperature;BMP_pressure;BME280_temperature;BME280_humidity;BME280_pressure;Samples;Min_cycle;Max_cycle;Signal;HPM_P1;HPM_P2
2021/07/21 00:00:09;;;;;;;;;;;;;;;27.59;47.15;100096.49;1777884;79;20140;-39
2021/07/21 00:02:36;;;;;;;;;;;;;;;27.58;47.19;100099.09;1782566;79;20373;-39
2021/07/21 00:05:05;;;;;;;;;;;;;;;27.58;47.21;100104.69;1783359;79;20457;-38
2021/07/21 00:07:31;;;;;;;;;;;;;;;27.57;47.25;100109.47;1780169;79;20410;-39
2021/07/21 00:09:57;;;;;;;;;;;;;;;27.57;47.28;100109.47;1781455;79;21116;-38
2021/07/21 00:15:09;;;;;;;;;;;;;;;27.57;47.35;100108.07;1785817;79;20148;-39
2021/07/21 00:17:37;;;;;;;;;;;;;;;27.55;47.37;100103.44;1782941;79;20426;-38
2021/07/21 00:20:07;;;;;;;;;;;;;;;27.56;47.42;100113.44;1776547;79;20165;-39
2021/07/21 00:22:36;;;;;;;;;;;;;;;27.55;47.47;100108.22;1777216;79;21155;-39
2021/07/21 00:25:06;;;;;;;;;;;;;;;27.56;47.49;100109.25;1778231;79;20172;-38
2021/07/21 00:27:33;;;;;;;;;;;;;;;27.55;47.53;100111.02;1778268;79;20177;-40
2021/07/21 00:29:59;;;;;;;;;;;;;;;27.53;47.57;100111.42;1778857;79;20215;-38
2021/07/21 00:32:25;;;;;;;;;;;;;;;27.54;47.60;100113.00;1783053;79;20458;-38
2021/07/21 00:34:51;;;;;;;;;;;;;;;27.54;47.63;100110.83;1785124;79;21777;-38
2021/07/21 00:37:17;;;;;;;;;;;;;;;27.53;47.69;100112.01;1778083;79;20376;-38
2021/07/21 00:39:43;;;;;;;;;;;;;;;27.54;47.71;100106.64;1777962;79;20199;-39
2021/07/21 00:42:09;;;;;;;;;;;;;;;27.53;47.74;100114.80;1781200;79;20162;-38
2021/07/21 00:44:34;;;;;;;;;;;;;;;27.52;47.77;100105.61;1787074;79;20159;-39
2021/07/21 00:47:00;;;;;;;;;;;;;;;27.53;47.80;100109.22;1783419;79;21157;-39
2021/07/21 00:49:26;;;;;;;;;;;;;;;27.53;47.83;100116.20;1786520;79;20355;-39
2021/07/21 00:51:53;;;;;;;;;;;;;;;27.51;47.88;100113.77;1778947;79;20277;-39
2021/07/21 00:54:20;;;;;;;;;;;;;;;27.52;47.90;100110.39;1785748;79;21251;-38
2021/07/21 00:56:46;;;;;;;;;;;;;;;27.51;47.93;100115.17;1785096;79;20144;-39
2021/07/21 00:59:12;;;;;;;;;;;;;;;27.51;47.97;100120.77;1783360;79;21079;-39
2021/07/21 01:01:37;;;;;;;;;;;;;;;27.51;48.02;100125.54;1785590;79;20204;-38
2021/07/21 01:04:04;;;;;;;;;;;;;;;27.51;48.04;100120.77;1778643;79;20687;-39
2021/07/21 01:06:30;;;;;;;;;;;;;;;27.51;48.07;100117.16;1778732;79;20217;-38
2021/07/21 01:08:56;;;;;;;;;;;;;;;27.50;48.09;100112.75;1779906;79;20162;-38
2021/07/21 01:11:44;;;;;;;;;;;;;;;27.49;48.14;100106.97;1776912;79;21305;-39
2021/07/21 01:14:17;;;;;;;;;;;;;;;27.49;48.15;100110.58;1779335;79;20183;-39
2021/07/21 01:16:46;;;;;;;;;;;;;;;27.49;48.17;100118.95;1741519;79;20180;-39
2021/07/21 01:19:35;;;;;;;;;;;;;;;27.48;48.21;100120.13;1776694;79;20199;-39
2021/07/21 01:22:15;;;;;;;;;;;;;;;27.48;48.23;100117.92;1775200;79;20469;-39
2021/07/21 01:25:08;;;;;;;;;;;;;;;27.46;48.25;100123.85;1777909;79;21099;-40
2021/07/21 01:27:55;;;;;;;;;;;;;;;27.45;48.28;100118.08;1773046;79;20306;-38
2021/07/21 01:30:26;;;;;;;;;;;;;;;27.45;48.30;100115.28;1776270;79;20410;-39
2021/07/21 01:32:55;;;;;;;;;;;;;;;27.45;48.31;100125.06;1774364;79;20229;-38
2021/07/21 01:35:24;;;;;;;;;;;;;;;27.44;48.34;100122.64;1778961;79;20434;-39
2021/07/21 01:37:57;;;;;;;;;;;;;;;27.43;48.37;100115.44;1778975;79;21195;-39
2021/07/21 01:40:28;;;;;;;;;;;;;;;27.42;48.40;100116.02;1774834;79;20490;-38
2021/07/21 01:42:56;;;;;;;;;;;;;;;27.43;48.44;100118.23;1776817;79;20186;-39
2021/07/21 01:45:25;;;;;;;;;;;;;;;27.43;48.46;100111.25;1779543;79;20182;-38
2021/07/21 01:47:51;;;;;;;;;;;;;;;27.42;48.47;100113.23;1777455;79;20617;-39
2021/07/21 01:50:17;;;;;;;;;;;;;;;27.42;48.52;100109.62;1748591;79;20990;-39
2021/07/21 01:52:47;;;;;;;;;;;;;;;27.42;48.53;100115.22;1777524;79;21507;-39
2021/07/21 01:55:11;;;;;;;;;;;;;;;27.41;48.57;100109.44;1775708;79;20220;-39
2021/07/21 01:57:37;;;;;;;;;;;;;;;27.40;48.59;100108.63;1778732;79;20431;-39
2021/07/21 02:00:06;;;;;;;;;;;;;;;27.41;48.61;100109.44;1778997;79;20246;-39
2021/07/21 02:02:32;;;;;;;;;;;;;;;27.40;48.65;100108.63;1775524;79;22197;-39
2021/07/21 02:04:58;;;;;;;;;;;;;;;27.40;48.66;100107.83;1752658;79;20200;-40
2021/07/21 02:07:24;;;;;;;;;;;;;;;27.40;48.68;100110.62;1778467;79;20286;-39
2021/07/21 02:09:50;;;;;;;;;;;;;;;27.40;48.72;100104.44;1756378;79;20161;-40
2021/07/21 02:12:16;;;;;;;;;;;;;;;27.40;48.76;100113.41;1780872;79;20828;-40
2021/07/21 02:14:42;;;;;;;;;;;;;;;27.39;48.78;100109.00;1782401;80;20309;-39
2021/07/21 02:17:08;;;;;;;;;;;;;;;27.40;48.79;100112.02;1779227;80;20169;-39
2021/07/21 02:19:34;;;;;;;;;;;;;;;27.39;48.80;100115.98;1780150;79;20693;-40
2021/07/21 02:22:00;;;;;;;;;;;;;;;27.39;48.84;100108.41;1777156;79;21492;-39
2021/07/21 02:24:27;;;;;;;;;;;;;;;27.38;48.85;100112.38;1778297;80;20244;-40
2021/07/21 02:26:53;;;;;;;;;;;;;;;27.38;48.87;100109.59;1783410;80;20977;-40
2021/07/21 02:29:19;;;;;;;;;;;;;;;27.38;48.91;100116.58;1779102;79;20213;-42
2021/07/21 02:31:49;;;;;;;;;;;;;;;27.38;48.93;100119.95;1778567;79;20210;-40
2021/07/21 02:34:15;;;;;;;;;;;;;;;27.38;48.95;100124.15;1781783;79;20230;-40
2021/07/21 02:36:41;;;;;;;;;;;;;;;27.38;48.97;100124.95;1778551;80;20186;-39
2021/07/21 02:39:07;;;;;;;;;;;;;;;27.37;48.99;100121.94;1783882;79;21051;-40
2021/07/21 02:41:35;;;;;;;;;;;;;;;27.37;49.01;100122.56;1780784;79;20387;-39
2021/07/21 02:44:01;;;;;;;;;;;;;;;27.36;49.02;100116.16;1778172;79;20176;-40
2021/07/21 02:46:27;;;;;;;;;;;;;;;27.36;49.04;100120.36;1779769;79;20179;-39
2021/07/21 02:48:53;;;;;;;;;;;;;;;27.37;49.06;100125.36;1780462;79;20522;-40
2021/07/21 02:51:28;;;;;;;;;;;;;;;27.36;49.08;100127.34;1777437;79;21683;-39
2021/07/21 02:54:14;;;;;;;;;;;;;;;27.36;49.10;100130.13;1779982;79;20161;-40
2021/07/21 02:56:44;;;;;;;;;;;;;;;27.36;49.13;100123.73;1781277;79;20208;-40
2021/07/21 02:59:14;;;;;;;;;;;;;;;27.34;49.15;100126.90;1782554;79;20164;-40
2021/07/21 03:01:42;;;;;;;;;;;;;;;27.35;49.15;100127.70;1777164;79;20207;-40
2021/07/21 03:04:08;;;;;;;;;;;;;;;27.34;49.18;100132.48;1729935;80;23366;-40
2021/07/21 03:06:34;;;;;;;;;;;;;;;27.34;49.21;100127.48;1786378;79;20133;-40
2021/07/21 03:09:00;;;;;;;;;;;;;;;27.33;49.23;100126.68;1731293;79;20208;-40
2021/07/21 03:11:26;;;;;;;;;;;;;;;27.33;49.26;100128.70;1781032;79;20183;-40
2021/07/21 03:13:54;;;;;;;;;;;;;;;27.33;49.29;100127.30;1782913;79;20182;-39
2021/07/21 03:16:28;;;;;;;;;;;;;;;27.33;49.30;100135.68;1783467;79;21194;-40
2021/07/21 03:18:56;;;;;;;;;;;;;;;27.33;49.33;100135.68;1785609;79;20307;-40
2021/07/21 03:21:22;;;;;;;;;;;;;;;27.32;49.36;100136.27;1783016;79;20418;-40
2021/07/21 03:23:48;;;;;;;;;;;;;;;27.32;49.38;100145.23;1780596;79;20189;-39
2021/07/21 03:26:14;;;;;;;;;;;;;;;27.32;49.39;100146.63;1784668;79;20195;-40
2021/07/21 03:28:40;;;;;;;;;;;;;;;27.32;49.42;100146.63;1786940;79;21864;-40
2021/07/21 03:31:06;;;;;;;;;;;;;;;27.32;49.42;100146.63;1779643;79;21631;-40
2021/07/21 03:33:32;;;;;;;;;;;;;;;27.32;49.48;100143.84;1759898;79;20250;-40
2021/07/21 03:36:03;;;;;;;;;;;;;;;27.32;49.49;100148.03;1781179;79;20166;-39
2021/07/21 03:38:29;;;;;;;;;;;;;;;27.31;49.50;100142.22;1783435;80;20199;-39
2021/07/21 03:40:55;;;;;;;;;;;;;;;27.31;49.52;100152.81;1779234;80;21237;-39
2021/07/21 03:43:22;;;;;;;;;;;;;;;27.31;49.54;100150.60;1781090;80;20215;-40
2021/07/21 03:45:49;;;;;;;;;;;;;;;27.31;49.57;100163.17;1783599;80;20235;-40
2021/07/21 03:48:15;;;;;;;;;;;;;;;27.30;49.59;100165.16;1784093;79;20766;-39
2021/07/21 03:50:41;;;;;;;;;;;;;;;27.30;49.61;100162.36;1782375;79;20195;-39
2021/07/21 03:53:07;;;;;;;;;;;;;;;27.30;49.61;100169.94;1786616;79;21024;-40
2021/07/21 03:55:36;;;;;;;;;;;;;;;27.30;49.66;100169.94;1783481;79;20183;-39
2021/07/21 03:58:01;;;;;;;;;;;;;;;27.28;49.67;100171.11;1783968;79;20211;-39
2021/07/21 04:00:27;;;;;;;;;;;;;;;27.29;49.69;100171.92;1780715;79;20704;-40
2021/07/21 04:02:56;;;;;;;;;;;;;;;27.28;49.70;100175.30;1777418;79;20185;-40
2021/07/21 04:05:23;;;;;;;;;;;;;;;27.28;49.71;100177.31;1785528;79;22148;-40
2021/07/21 04:07:48;;;;;;;;;;;;;;;27.28;49.74;100182.09;1784439;79;20191;-40
2021/07/21 04:10:15;;;;;;;;;;;;;;;27.28;49.76;100180.69;1786338;79;20202;-40
2021/07/21 04:12:43;;;;;;;;;;;;;;;27.28;49.82;100185.69;1780770;79;20436;-40
2021/07/21 04:15:10;;;;;;;;;;;;;;;27.28;49.88;100183.67;1783246;79;20203;-40
2021/07/21 04:17:36;;;;;;;;;;;;;;;27.30;49.95;100190.88;1779818;79;21180;-40
2021/07/21 04:20:03;;;;;;;;;;;;;;;27.31;49.99;100191.10;1779058;80;21098;-40
2021/07/21 04:22:29;;;;;;;;;;;;;;;27.30;50.05;100195.88;1783425;79;20512;-40
2021/07/21 04:24:56;;;;;;;;;;;;;;;27.31;50.10;100193.89;1783801;79;20473;-40
2021/07/21 04:27:22;;;;;;;;;;;;;;;27.31;50.17;100188.31;1781348;79;20193;-40
2021/07/21 04:29:49;;;;;;;;;;;;;;;27.31;50.24;100189.12;1785030;79;21070;-40
2021/07/21 04:32:15;;;;;;;;;;;;;;;27.32;50.30;100196.91;1785195;79;20215;-40
2021/07/21 04:34:44;;;;;;;;;;;;;;;27.31;50.34;100192.50;1778337;79;21706;-39
2021/07/21 04:37:10;;;;;;;;;;;;;;;27.32;50.38;100196.91;1770643;79;20608;-40
2021/07/21 04:39:36;;;;;;;;;;;;;;;27.32;50.44;100199.70;1780496;78;20211;-40
2021/07/21 04:42:03;;;;;;;;;;;;;;;27.32;50.48;100206.10;1781853;79;21211;-40
2021/07/21 04:44:30;;;;;;;;;;;;;;;27.32;50.54;100204.70;1779268;79;20243;-39
2021/07/21 04:46:58;;;;;;;;;;;;;;;27.32;50.59;100197.72;1780047;79;20179;-46
2021/07/21 04:49:24;;;;;;;;;;;;;;;27.33;50.62;100206.29;1784871;79;20781;-39
2021/07/21 04:51:50;;;;;;;;;;;;;;;27.33;50.69;100204.89;1784975;79;20164;-40
2021/07/21 04:54:16;;;;;;;;;;;;;;;27.34;50.77;100207.09;1755282;80;21269;-40
2021/07/21 04:56:42;;;;;;;;;;;;;;;27.35;50.85;100205.92;1784045;79;20768;-39
2021/07/21 04:59:07;;;;;;;;;;;;;;;27.35;50.91;100209.52;1782613;79;20175;-39
2021/07/21 05:01:34;;;;;;;;;;;;;;;27.35;50.96;100203.13;1777515;79;20167;-39
2021/07/21 05:03:59;;;;;;;;;;;;;;;27.36;51.04;100207.54;1779787;79;20595;-39
2021/07/21 05:06:25;;;;;;;;;;;;;;;27.35;51.08;100205.34;1780406;79;20984;-41
2021/07/21 05:08:51;;;;;;;;;;;;;;;27.37;51.13;100207.77;1782098;79;20279;-39
2021/07/21 05:11:18;;;;;;;;;;;;;;;27.36;51.20;100214.52;1779888;79;20132;-39
2021/07/21 05:13:44;;;;;;;;;;;;;;;27.36;51.25;100218.12;1778166;79;20232;-38
2021/07/21 05:16:10;;;;;;;;;;;;;;;27.38;51.31;100219.13;1778638;79;20745;-39
2021/07/21 05:18:36;;;;;;;;;;;;;;;27.37;51.33;100220.33;1778262;79;20979;-39
2021/07/21 05:21:03;;;;;;;;;;;;;;;27.37;51.36;100216.92;1777340;79;20172;-39
2021/07/21 05:23:29;;;;;;;;;;;;;;;27.37;51.37;100221.73;1777679;79;20232;-39
2021/07/21 05:25:55;;;;;;;;;;;;;;;27.38;51.43;100220.52;1778296;79;20197;-39
2021/07/21 05:28:21;;;;;;;;;;;;;;;27.37;51.45;100228.72;1773216;79;20908;-39
2021/07/21 05:30:46;;;;;;;;;;;;;;;27.38;51.49;100228.91;1777472;79;21124;-39
2021/07/21 05:33:12;;;;;;;;;;;;;;;27.38;51.50;100220.52;1780566;79;20249;-39
2021/07/21 05:35:40;;;;;;;;;;;;;;;27.37;51.54;100223.13;1782803;79;20198;-39
2021/07/21 05:38:06;;;;;;;;;;;;;;;27.37;51.56;100226.70;1783753;79;20167;-39
2021/07/21 05:40:32;;;;;;;;;;;;;;;27.37;51.58;100225.92;1786044;79;20195;-43
2021/07/21 05:42:58;;;;;;;;;;;;;;;27.37;51.61;100229.49;1778201;79;21181;-39
2021/07/21 05:45:24;;;;;;;;;;;;;;;27.39;51.61;100236.92;1781854;79;20779;-39
2021/07/21 05:47:50;;;;;;;;;;;;;;;27.38;51.66;100235.89;1780930;79;20574;-40
2021/07/21 05:50:16;;;;;;;;;;;;;;;27.38;51.66;100238.09;1785133;79;21008;-39
2021/07/21 05:52:42;;;;;;;;;;;;;;;27.40;51.69;100236.33;1784519;79;20160;-39
2021/07/21 05:55:09;;;;;;;;;;;;;;;27.38;51.68;100239.48;1772389;79;21152;-39
2021/07/21 05:57:35;;;;;;;;;;;;;;;27.39;51.70;100240.30;1778156;79;20194;-39
2021/07/21 06:00:00;;;;;;;;;;;;;;;27.40;51.68;100232.14;1781044;79;20316;-39
2021/07/21 06:02:27;;;;;;;;;;;;;;;27.40;51.72;100236.33;1781231;79;20673;-40
2021/07/21 06:04:53;;;;;;;;;;;;;;;27.39;51.73;100246.70;1779890;79;20162;-39
2021/07/21 06:07:18;;;;;;;;;;;;;;;27.39;51.73;100243.90;1777573;80;21128;-40
2021/07/21 06:09:44;;;;;;;;;;;;;;;27.40;51.72;100246.11;1781634;79;20232;-39
2021/07/21 06:12:10;;;;;;;;;;;;;;;27.40;51.75;100253.90;1778586;79;20702;-38
2021/07/21 06:14:36;;;;;;;;;;;;;;;27.40;51.74;100251.11;1776052;79;20153;-38
2021/07/21 06:17:03;;;;;;;;;;;;;;;27.40;51.74;100248.90;1779166;80;20183;-38
2021/07/21 06:19:33;;;;;;;;;;;;;;;27.40;51.75;100248.90;1776675;80;21290;-39
2021/07/21 06:22:01;;;;;;;;;;;;;;;27.40;51.75;100250.30;1782225;79;20152;-39
2021/07/21 06:24:27;;;;;;;;;;;;;;;27.40;51.75;100247.50;1776164;79;20213;-39
2021/07/21 06:26:54;;;;;;;;;;;;;;;27.40;51.75;100258.68;1776824;80;20203;-38
2021/07/21 06:29:20;;;;;;;;;;;;;;;27.40;51.76;100253.09;1776422;79;20502;-39
2021/07/21 06:31:46;;;;;;;;;;;;;;;27.40;51.74;100255.89;1775964;79;21917;-39
2021/07/21 06:34:11;;;;;;;;;;;;;;;27.38;51.66;100259.63;1773892;79;20264;-39
2021/07/21 06:36:37;;;;;;;;;;;;;;;27.34;51.52;100260.98;1777375;79;20217;-39
2021/07/21 06:39:03;;;;;;;;;;;;;;;27.30;51.45;100264.31;1780901;79;20215;-39
2021/07/21 06:41:29;;;;;;;;;;;;;;;27.29;51.44;100261.30;1777059;80;20458;-39
2021/07/21 06:43:59;;;;;;;;;;;;;;;27.28;51.37;100263.28;1778138;79;21051;-39
2021/07/21 06:46:23;;;;;;;;;;;;;;;27.28;51.22;100265.88;1773496;80;20976;-39
2021/07/21 06:48:48;;;;;;;;;;;;;;;27.25;51.06;100266.84;1780325;79;20214;-39
2021/07/21 06:51:14;;;;;;;;;;;;;;;27.23;50.91;100265.61;1777562;79;20195;-39
2021/07/21 06:53:40;;;;;;;;;;;;;;;27.20;50.78;100262.19;1778695;79;20253;-39
2021/07/21 06:56:06;;;;;;;;;;;;;;;27.17;50.63;100264.31;1780462;80;21035;-38
2021/07/21 06:58:32;;;;;;;;;;;;;;;27.13;50.48;100252.28;1778230;80;21027;-39
2021/07/21 07:00:58;;;;;;;;;;;;;;;27.10;50.35;100264.20;1779805;79;20113;-38
2021/07/21 07:03:24;;;;;;;;;;;;;;;27.06;50.24;100262.76;1779597;79;20540;-40
2021/07/21 07:05:50;;;;;;;;;;;;;;;27.03;50.10;100261.31;1782443;79;20226;-39
2021/07/21 07:08:16;;;;;;;;;;;;;;;27.00;49.99;100257.27;1784080;79;21968;-39
2021/07/21 07:10:42;;;;;;;;;;;;;;;26.97;49.87;100252.44;1780400;79;20164;-40
2021/07/21 07:13:08;;;;;;;;;;;;;;;26.94;49.74;100258.78;1781299;79;20556;-39
2021/07/21 07:15:34;;;;;;;;;;;;;;;26.91;49.61;100255.31;1781089;79;20216;-39
2021/07/21 07:18:00;;;;;;;;;;;;;;;26.89;49.49;100252.11;1782519;79;20230;-39
2021/07/21 07:20:26;;;;;;;;;;;;;;;26.85;49.37;100247.05;1779680;79;20744;-39
2021/07/21 07:22:51;;;;;;;;;;;;;;;26.82;49.24;100254.14;1781458;79;20483;-38
2021/07/21 07:25:17;;;;;;;;;;;;;;;26.80;49.12;100257.10;1783080;79;20231;-39
2021/07/21 07:27:43;;;;;;;;;;;;;;;26.77;49.02;100255.06;1778923;79;20151;-39
2021/07/21 07:30:12;;;;;;;;;;;;;;;26.74;48.90;100257.99;1780686;79;20146;-38
2021/07/21 07:32:38;;;;;;;;;;;;;;;26.72;48.75;100262.34;1780228;79;21851;-39
2021/07/21 07:35:05;;;;;;;;;;;;;;;26.70;48.67;100268.88;1779472;79;20192;-39
2021/07/21 07:37:31;;;;;;;;;;;;;;;26.67;48.56;100255.67;1775677;80;20235;-38
2021/07/21 07:39:57;;;;;;;;;;;;;;;26.65;48.44;100263.63;1782200;79;20860;-39
2021/07/21 07:42:23;;;;;;;;;;;;;;;26.64;48.35;100262.01;1783683;79;20363;-38
2021/07/21 07:44:49;;;;;;;;;;;;;;;26.61;48.24;100259.94;1776004;79;21177;-38
2021/07/21 07:47:15;;;;;;;;;;;;;;;26.58;48.15;100259.30;1784763;79;20221;-38
2021/07/21 07:49:40;;;;;;;;;;;;;;;26.56;48.05;100260.27;1783458;79;21409;-39
2021/07/21 07:52:06;;;;;;;;;;;;;;;26.54;47.95;100263.42;1782646;79;20203;-38
2021/07/21 07:54:32;;;;;;;;;;;;;;;26.53;47.85;100263.20;1776213;79;20162;-38
2021/07/21 07:56:58;;;;;;;;;;;;;;;26.51;47.79;100264.76;1778824;80;21239;-38
2021/07/21 07:59:24;;;;;;;;;;;;;;;26.52;47.81;100268.55;1778611;79;20221;-38
2021/07/21 08:01:50;;;;;;;;;;;;;;;26.55;47.81;100267.83;1788191;79;21060;-38
2021/07/21 08:04:16;;;;;;;;;;;;;;;26.58;47.78;100270.45;1784812;79;20277;-39
2021/07/21 08:06:42;;;;;;;;;;;;;;;26.63;47.77;100272.36;1787008;79;20242;-39
2021/07/21 08:09:14;;;;;;;;;;;;;;;26.66;47.75;100271.61;1811140;78;20956;-38
2021/07/21 08:11:45;;;;;;;;;;;;;;;26.68;47.73;100268.45;1806544;78;20635;-39
2021/07/21 08:14:12;;;;;;;;;;;;;;;26.72;47.72;100270.72;1796512;78;20215;-40
2021/07/21 08:16:38;;;;;;;;;;;;;;;26.74;47.71;100266.95;1792058;78;20516;-38
2021/07/21 08:19:04;;;;;;;;;;;;;;;26.76;47.71;100265.42;1792930;78;20143;-38
2021/07/21 08:21:30;;;;;;;;;;;;;;;26.77;47.72;100260.06;1796128;78;21104;-38
2021/07/21 08:23:56;;;;;;;;;;;;;;;26.79;47.70;100261.06;1791098;78;20178;-38
2021/07/21 08:26:22;;;;;;;;;;;;;;;26.83;47.70;100252.16;1790801;78;20234;-39
2021/07/21 08:28:47;;;;;;;;;;;;;;;26.86;47.70;100261.23;1791866;78;20186;-39
2021/07/21 08:31:13;;;;;;;;;;;;;;;26.88;47.71;100254.67;1794130;78;20748;-38
2021/07/21 08:33:41;;;;;;;;;;;;;;;26.91;47.70;100258.11;1795657;78;22084;-38
2021/07/21 08:36:07;;;;;;;;;;;;;;;26.93;47.70;100259.14;1797421;78;20164;-37
2021/07/21 08:38:33;;;;;;;;;;;;;;;26.94;47.64;100259.36;1797873;78;20257;-38
2021/07/21 08:40:59;;;;;;;;;;;;;;;26.91;47.59;100253.11;1798720;78;20173;-38
2021/07/21 08:43:26;;;;;;;;;;;;;;;26.88;47.54;100250.48;1790422;78;20172;-39
2021/07/21 08:45:53;;;;;;;;;;;;;;;26.86;47.50;100250.66;1791024;78;21092;-37
2021/07/21 08:48:18;;;;;;;;;;;;;;;26.80;47.45;100248.14;1791143;78;20484;-37
2021/07/21 08:50:45;;;;;;;;;;;;;;;26.79;47.40;100248.50;1792339;78;20259;-37
2021/07/21 08:53:11;;;;;;;;;;;;;;;26.77;47.34;100247.50;1791890;78;20199;-37
2021/07/21 08:55:37;;;;;;;;;;;;;;;26.75;47.28;100242.06;1790022;78;20418;-38
2021/07/21 08:58:03;;;;;;;;;;;;;;;26.72;47.21;100240.83;1790045;78;23363;-38
2021/07/21 09:00:29;;;;;;;;;;;;;;;26.71;47.14;100235.61;1762105;79;20185;-37
2021/07/21 09:02:55;;;;;;;;;;;;;;;26.68;47.09;100239.16;1793458;78;20182;-38
2021/07/21 09:05:21;;;;;;;;;;;;;;;26.67;47.03;100243.12;1795460;78;20201;-37
2021/07/21 09:07:47;;;;;;;;;;;;;;;26.65;46.97;100238.52;1791770;78;20811;-38
2021/07/21 09:10:15;;;;;;;;;;;;;;;26.64;46.89;100235.50;1795510;78;21164;-38
2021/07/21 09:12:42;;;;;;;;;;;;;;;26.62;46.80;100242.03;1792138;78;20202;-38
2021/07/21 09:15:10;;;;;;;;;;;;;;;26.60;46.74;100243.00;1790403;78;20151;-38
2021/07/21 09:17:36;;;;;;;;;;;;;;;26.58;46.67;100237.78;1754802;81;20654;-38
2021/07/21 09:20:02;;;;;;;;;;;;;;;26.57;46.58;100233.96;1796195;78;20332;-38
2021/07/21 09:22:34;;;;;;;;;;;;;;;26.55;46.51;100231.56;1766049;79;21850;-37
2021/07/21 09:25:18;;;;;;;;;;;;;;;26.54;46.43;100231.92;1773503;79;20407;-38
2021/07/21 09:27:46;;;;;;;;;;;;;;;26.53;46.37;100231.12;1767032;80;20189;-38
2021/07/21 09:30:14;;;;;;;;;;;;;;;26.51;46.28;100227.09;1773881;79;20139;-38
2021/07/21 09:32:58;;;;;;;;;;;;;;;26.51;46.22;100229.89;1776223;79;20195;-38
2021/07/21 09:35:27;;;;;;;;;;;;;;;26.51;46.14;100229.30;1763377;79;21032;-38
2021/07/21 09:37:55;;;;;;;;;;;;;;;26.50;46.04;100228.27;1777443;80;20148;-38
2021/07/21 09:40:21;;;;;;;;;;;;;;;26.48;45.97;100231.42;1751500;79;20217;-38
2021/07/21 09:42:47;;;;;;;;;;;;;;;26.47;45.90;100224.84;1753849;78;22059;-38
2021/07/21 09:45:18;;;;;;;;;;;;;;;26.48;45.83;100224.45;1770651;78;20168;-38
2021/07/21 09:47:54;;;;;;;;;;;;;;;26.47;45.77;100224.25;1756116;79;21151;-38
2021/07/21 09:50:25;;;;;;;;;;;;;;;26.47;45.72;100224.84;1777329;78;20488;-39
2021/07/21 09:52:53;;;;;;;;;;;;;;;26.45;45.65;100217.41;1762983;80;20222;-38
2021/07/21 09:55:19;;;;;;;;;;;;;;;26.44;45.59;100215.20;1768616;80;20171;-38
2021/07/21 09:58:16;;;;;;;;;;;;;;;26.44;45.49;100215.20;1770794;80;20242;-38
2021/07/21 10:00:43;;;;;;;;;;;;;;;26.42;45.43;100216.19;1801358;78;21940;-39
2021/07/21 10:03:20;;;;;;;;;;;;;;;26.41;45.36;100220.14;1762633;79;20243;-38
2021/07/21 10:06:05;;;;;;;;;;;;;;;26.39;45.32;100209.16;1768279;79;20177;-39
2021/07/21 10:08:48;;;;;;;;;;;;;;;26.37;45.23;100213.70;1756050;80;20258;-39
2021/07/21 10:11:28;;;;;;;;;;;;;;;26.38;45.17;100204.74;1770508;80;20224;-38
2021/07/21 10:14:04;;;;;;;;;;;;;;;26.36;45.10;100205.91;1769392;80;21128;-38
2021/07/21 10:16:36;;;;;;;;;;;;;;;26.37;45.01;100203.93;1788131;78;20202;-38
2021/07/21 10:19:11;;;;;;;;;;;;;;;26.36;44.94;100196.15;1765260;80;20168;-38
2021/07/21 10:21:39;;;;;;;;;;;;;;;26.38;44.87;100194.98;1762981;80;20642;-38
2021/07/21 10:24:06;;;;;;;;;;;;;;;26.42;44.85;100193.06;1759100;80;20181;-38
2021/07/21 10:26:32;;;;;;;;;;;;;;;26.47;44.83;100187.17;1766053;80;21129;-38
2021/07/21 10:28:59;;;;;;;;;;;;;;;26.51;44.80;100182.46;1771095;80;20299;-37
2021/07/21 10:31:25;;;;;;;;;;;;;;;26.56;44.82;100187.73;1765213;80;20140;-39
2021/07/21 10:33:51;;;;;;;;;;;;;;;26.61;44.83;100188.20;1767640;80;20179;-39
2021/07/21 10:36:18;;;;;;;;;;;;;;;26.65;44.85;100189.06;1761613;80;20474;-39
2021/07/21 10:38:45;;;;;;;;;;;;;;;26.72;44.86;100177.23;1764285;80;21949;-39
2021/07/21 10:41:13;;;;;;;;;;;;;;;26.77;44.82;100167.16;1769537;80;20205;-39
2021/07/21 10:43:44;;;;;;;;;;;;;;;26.77;44.72;100168.55;1767390;80;21605;-39
2021/07/21 10:46:31;;;;;;;;;;;;;;;26.75;44.62;100176.48;1764835;80;20287;-39
2021/07/21 10:49:22;;;;;;;;;;;;;;;26.71;44.51;100171.43;1760651;80;20228;-39
2021/07/21 10:52:10;;;;;;;;;;;;;;;26.68;44.43;100170.80;1758190;80;21117;-40
2021/07/21 10:54:40;;;;;;;;;;;;;;;26.64;44.35;100161.56;1741077;80;20188;-39
2021/07/21 10:59:41;;;;;;;;;;;;;;;26.60;44.23;100150.94;1766433;78;20512;-37
2021/07/21 11:02:08;;;;;;;;;;;;;;;26.58;44.12;100148.50;1757652;80;20224;-37
2021/07/21 11:04:43;;;;;;;;;;;;;;;26.56;44.07;100147.28;1759191;80;21133;-37
2021/07/21 11:07:08;;;;;;;;;;;;;;;26.52;43.99;100147.20;1777292;79;20223;-39
2021/07/21 11:09:38;;;;;;;;;;;;;;;26.52;43.92;100143.02;1783532;79;20317;-39
2021/07/21 11:12:03;;;;;;;;;;;;;;;26.50;43.88;100138.41;1779334;79;20153;-39
2021/07/21 11:14:30;;;;;;;;;;;;;;;26.48;43.79;100136.57;1783015;79;20624;-38
2021/07/21 11:17:09;;;;;;;;;;;;;;;26.46;43.74;100136.16;1779086;79;21110;-38
2021/07/21 11:19:46;;;;;;;;;;;;;;;26.45;43.68;100133.73;1775100;79;20367;-39
2021/07/21 11:22:22;;;;;;;;;;;;;;;26.45;43.61;100127.56;1774344;79;20283;-38
2021/07/21 11:25:09;;;;;;;;;;;;;;;26.44;43.52;100120.98;1779392;79;20543;-38
2021/07/21 11:27:38;;;;;;;;;;;;;;;26.42;43.47;100124.13;1778069;79;20199;-39
2021/07/21 11:30:06;;;;;;;;;;;;;;;26.42;43.40;100119.95;1778952;79;21318;-39
2021/07/21 11:32:32;;;;;;;;;;;;;;;26.42;43.32;100117.75;1754917;79;20398;-39
2021/07/21 11:34:58;;;;;;;;;;;;;;;26.42;43.24;100121.34;1782231;79;20213;-39
2021/07/21 11:37:29;;;;;;;;;;;;;;;26.44;43.26;100112.00;1784687;79;20211;-39
2021/07/21 11:39:59;;;;;;;;;;;;;;;26.50;43.25;100106.92;1782877;79;20519;-40
2021/07/21 11:42:29;;;;;;;;;;;;;;;26.55;43.23;100106.61;1778068;79;21097;-40
2021/07/21 11:45:15;;;;;;;;;;;;;;;26.61;43.19;100102.30;1781135;79;20135;-39
2021/07/21 11:47:56;;;;;;;;;;;;;;;26.65;43.17;100113.73;1781546;79;20493;-40
2021/07/21 11:50:30;;;;;;;;;;;;;;;26.68;43.10;100113.00;1777555;79;20203;-40
2021/07/21 11:53:01;;;;;;;;;;;;;;;26.72;43.07;100131.19;1779780;79;20173;-40
2021/07/21 11:55:28;;;;;;;;;;;;;;;26.75;43.06;100129.03;1780892;79;22000;-40
2021/07/21 11:57:55;;;;;;;;;;;;;;;26.79;43.08;100139.07;1780788;79;20409;-40
2021/07/21 12:00:22;;;;;;;;;;;;;;;26.83;43.08;100134.94;1784639;79;20187;-39
2021/07/21 12:02:49;;;;;;;;;;;;;;;26.88;43.08;100132.45;1779984;79;20214;-39
2021/07/21 12:05:15;;;;;;;;;;;;;;;26.91;43.10;100135.28;1775813;79;20296;-39
2021/07/21 12:07:46;;;;;;;;;;;;;;;26.96;43.09;100132.76;1774464;79;21183;-40
2021/07/21 12:10:15;;;;;;;;;;;;;;;27.01;43.12;100138.02;1778639;79;20140;-40
2021/07/21 12:12:41;;;;;;;;;;;;;;;27.06;43.14;100142.70;1781698;79;20199;-39
2021/07/21 12:15:08;;;;;;;;;;;;;;;27.11;43.14;100140.17;1782845;79;20497;-40
2021/07/21 12:17:34;;;;;;;;;;;;;;;27.15;43.16;100147.42;1782898;79;20497;-40
2021/07/21 12:20:03;;;;;;;;;;;;;;;27.17;43.14;100146.43;1780075;79;21120;-40
2021/07/21 12:22:30;;;;;;;;;;;;;;;27.20;43.10;100142.88;1779637;79;20171;-40
2021/07/21 12:24:58;;;;;;;;;;;;;;;27.23;43.08;100156.69;1784215;79;20169;-40
2021/07/21 12:27:39;;;;;;;;;;;;;;;27.23;43.07;100143.53;1782516;79;20426;-39
2021/07/21 12:30:07;;;;;;;;;;;;;;;27.25;43.03;100150.93;1780809;79;20246;-40
2021/07/21 12:32:33;;;;;;;;;;;;;;;27.29;43.00;100153.77;1782263;79;21216;-40
2021/07/21 12:34:59;;;;;;;;;;;;;;;27.32;43.02;100166.99;1783840;79;20194;-39
2021/07/21 12:37:26;;;;;;;;;;;;;;;27.36;43.01;100158.66;1779371;79;20242;-39
2021/07/21 12:39:53;;;;;;;;;;;;;;;27.40;43.06;100156.71;1783721;79;20415;-40
2021/07/21 12:42:28;;;;;;;;;;;;;;;27.44;43.04;100168.73;1786722;79;20152;-40
2021/07/21 12:44:56;;;;;;;;;;;;;;;27.47;43.07;100168.81;1788544;79;20992;-41